sensor_id;sensor_type;location;lat;lon;timestamp;pressure;altitude;pressure_sealevel;temperature;humidity
43364;BME280;40636;52.424;-1.948;2023-07-20T00:02:02;100090.31;;;13.53;100.00
43364;BME280;40636;52.424;-1.948;2023-07-20T00:04:31;100093.59;;;13.45;100.00
43364;BME280;40636;52.424;-1.948;2023-07-20T00:06:59;100094.69;;;13.44;100.00
43364;BME280;40636;52.424;-1.948;2023-07-20T00:09:28;100096.81;;;13.32;100.00
43364;BME280;40636;52.424;-1.948;2023-07-20T00:11:54;100092.47;;;13.41;100.00
43364;BME280;40636;52.424;-1.948;2023-07-20T00:14:21;100086.13;;;13.40;100.00
43364;BME280;40636;52.424;-1.948;2023-07-20T00:16:50;100088.34;;;13.43;100.00
43364;BME280;40636;52.424;-1.948;2023-07-20T00:19:26;100092.94;;;13.28;100.00
43364;BME280;40636;52.424;-1.948;2023-07-20T00:21:54;100086.00;;;13.25;100.00
43364;BME280;40636;52.424;-1.948;2023-07-20T00:24:21;100092.09;;;13.27;100.00
43364;BME280;40636;52.424;-1.948;2023-07-20T00:26:48;100091.69;;;13.13;100.00
43364;BME280;40636;52.424;-1.948;2023-07-20T00:29:15;100087.81;;;13.09;100.00
43364;BME280;40636;52.424;-1.948;2023-07-20T00:31:42;100081.59;;;12.92;100.00
43364;BME280;40636;52.424;-1.948;2023-07-20T00:34:10;100083.50;;;12.86;100.00
43364;BME280;40636;52.424;-1.948;2023-07-20T00:36:37;100078.47;;;12.78;100.00
43364;BME280;40636;52.424;-1.948;2023-07-20T00:39:04;100074.72;;;12.62;100.00
43364;BME280;40636;52.424;-1.948;2023-07-20T00:41:31;100080.13;;;12.52;100.00
43364;BME280;40636;52.424;-1.948;2023-07-20T00:43:59;100078.44;;;12.46;100.00
43364;BME280;40636;52.424;-1.948;2023-07-20T00:46:25;100078.00;;;12.32;100.00
43364;BME280;40636;52.424;-1.948;2023-07-20T00:48:53;100080.94;;;12.26;100.00
43364;BME280;40636;52.424;-1.948;2023-07-20T00:51:21;100082.00;;;12.19;100.00
43364;BME280;40636;52.424;-1.948;2023-07-20T00:53:49;100073.78;;;12.25;100.00
43364;BME280;40636;52.424;-1.948;2023-07-20T00:56:16;100076.50;;;12.19;100.00
43364;BME280;40636;52.424;-1.948;2023-07-20T00:58:43;100081.34;;;12.12;100.00
43364;BME280;40636;52.424;-1.948;2023-07-20T01:01:11;100077.09;;;12.00;100.00
43364;BME280;40636;52.424;-1.948;2023-07-20T01:03:38;100078.44;;;11.97;100.00
43364;BME280;40636;52.424;-1.948;2023-07-20T01:14:23;100073.44;;;11.94;100.00
43364;BME280;40636;52.424;-1.948;2023-07-20T01:16:51;100075.91;;;11.74;100.00
43364;BME280;40636;52.424;-1.948;2023-07-20T01:19:19;100071.28;;;11.57;100.00
43364;BME280;40636;52.424;-1.948;2023-07-20T01:21:55;100073.13;;;11.52;100.00
43364;BME280;40636;52.424;-1.948;2023-07-20T01:24:48;100065.91;;;11.46;100.00
43364;BME280;40636;52.424;-1.948;2023-07-20T01:32:37;100067.94;;;11.33;100.00
43364;BME280;40636;52.424;-1.948;2023-07-20T01:35:06;100064.09;;;11.34;100.00
43364;BME280;40636;52.424;-1.948;2023-07-20T01:37:34;100063.88;;;11.36;100.00
43364;BME280;40636;52.424;-1.948;2023-07-20T01:40:02;100062.78;;;11.37;100.00
43364;BME280;40636;52.424;-1.948;2023-07-20T01:42:29;100069.03;;;11.32;100.00
43364;BME280;40636;52.424;-1.948;2023-07-20T01:44:57;100068.50;;;11.35;100.00
43364;BME280;40636;52.424;-1.948;2023-07-20T01:47:23;100070.41;;;11.35;100.00
43364;BME280;40636;52.424;-1.948;2023-07-20T01:49:50;100073.44;;;11.33;100.00
43364;BME280;40636;52.424;-1.948;2023-07-20T01:52:17;100072.59;;;11.33;100.00
43364;BME280;40636;52.424;-1.948;2023-07-20T01:54:43;100065.94;;;11.29;100.00
43364;BME280;40636;52.424;-1.948;2023-07-20T01:57:10;100067.03;;;11.28;100.00
43364;BME280;40636;52.424;-1.948;2023-07-20T01:59:37;100060.94;;;11.26;100.00
43364;BME280;40636;52.424;-1.948;2023-07-20T02:02:04;100063.06;;;11.18;100.00
43364;BME280;40636;52.424;-1.948;2023-07-20T02:04:31;100059.41;;;11.13;100.00
43364;BME280;40636;52.424;-1.948;2023-07-20T02:06:57;100057.72;;;11.12;100.00
43364;BME280;40636;52.424;-1.948;2023-07-20T02:09:24;100056.31;;;11.09;100.00
43364;BME280;40636;52.424;-1.948;2023-07-20T02:11:51;100053.56;;;11.09;100.00
43364;BME280;40636;52.424;-1.948;2023-07-20T02:14:18;100053.81;;;11.08;100.00
43364;BME280;40636;52.424;-1.948;2023-07-20T02:16:44;100054.06;;;11.06;100.00
43364;BME280;40636;52.424;-1.948;2023-07-20T02:19:14;100055.16;;;11.05;100.00
43364;BME280;40636;52.424;-1.948;2023-07-20T02:21:40;100055.09;;;11.00;100.00
43364;BME280;40636;52.424;-1.948;2023-07-20T02:24:07;100055.66;;;11.02;100.00
43364;BME280;40636;52.424;-1.948;2023-07-20T02:26:34;100058.91;;;10.99;100.00
43364;BME280;40636;52.424;-1.948;2023-07-20T02:29:00;100056.66;;;10.96;100.00
43364;BME280;40636;52.424;-1.948;2023-07-20T02:31:31;100059.31;;;11.08;100.00
43364;BME280;40636;52.424;-1.948;2023-07-20T02:33:57;100055.16;;;11.05;100.00
43364;BME280;40636;52.424;-1.948;2023-07-20T02:36:24;100058.41;;;11.02;100.00
43364;BME280;40636;52.424;-1.948;2023-07-20T02:38:51;100067.16;;;10.99;100.00
43364;BME280;40636;52.424;-1.948;2023-07-20T02:41:18;100054.19;;;10.95;100.00
43364;BME280;40636;52.424;-1.948;2023-07-20T02:43:45;100064.97;;;10.84;100.00
43364;BME280;40636;52.424;-1.948;2023-07-20T02:46:12;100063.81;;;10.80;100.00
43364;BME280;40636;52.424;-1.948;2023-07-20T02:48:38;100059.31;;;10.74;100.00
43364;BME280;40636;52.424;-1.948;2023-07-20T02:51:05;100052.66;;;10.70;100.00
43364;BME280;40636;52.424;-1.948;2023-07-20T02:53:34;100060.00;;;10.64;100.00
43364;BME280;40636;52.424;-1.948;2023-07-20T02:56:00;100056.66;;;10.62;100.00
43364;BME280;40636;52.424;-1.948;2023-07-20T02:58:27;100063.22;;;10.61;100.00
43364;BME280;40636;52.424;-1.948;2023-07-20T03:00:54;100053.81;;;10.57;100.00
43364;BME280;40636;52.424;-1.948;2023-07-20T03:03:21;100059.47;;;10.51;100.00
43364;BME280;40636;52.424;-1.948;2023-07-20T03:05:48;100061.13;;;10.52;100.00
43364;BME280;40636;52.424;-1.948;2023-07-20T03:08:21;100058.78;;;10.44;100.00
43364;BME280;40636;52.424;-1.948;2023-07-20T03:10:47;100052.25;;;10.45;100.00
43364;BME280;40636;52.424;-1.948;2023-07-20T03:13:14;100058.56;;;10.45;100.00
43364;BME280;40636;52.424;-1.948;2023-07-20T03:15:42;100055.69;;;10.40;100.00
43364;BME280;40636;52.424;-1.948;2023-07-20T03:18:09;100054.78;;;10.34;100.00
43364;BME280;40636;52.424;-1.948;2023-07-20T03:20:36;100052.28;;;10.33;100.00
43364;BME280;40636;52.424;-1.948;2023-07-20T03:23:03;100053.28;;;10.27;100.00
43364;BME280;40636;52.424;-1.948;2023-07-20T03:25:30;100053.75;;;10.24;100.00
43364;BME280;40636;52.424;-1.948;2023-07-20T03:27:57;100055.44;;;10.25;100.00
43364;BME280;40636;52.424;-1.948;2023-07-20T03:30:24;100056.25;;;10.25;100.00
43364;BME280;40636;52.424;-1.948;2023-07-20T03:32:52;100047.06;;;10.20;100.00
43364;BME280;40636;52.424;-1.948;2023-07-20T03:35:18;100049.94;;;10.25;100.00
43364;BME280;40636;52.424;-1.948;2023-07-20T03:37:45;100052.22;;;10.16;100.00
43364;BME280;40636;52.424;-1.948;2023-07-20T03:40:12;100046.91;;;10.09;100.00
43364;BME280;40636;52.424;-1.948;2023-07-20T03:42:39;100046.94;;;9.98;100.00
43364;BME280;40636;52.424;-1.948;2023-07-20T03:45:06;100049.09;;;9.96;100.00
43364;BME280;40636;52.424;-1.948;2023-07-20T03:47:33;100048.84;;;9.97;100.00
43364;BME280;40636;52.424;-1.948;2023-07-20T03:49:59;100052.06;;;9.94;100.00
43364;BME280;40636;52.424;-1.948;2023-07-20T03:52:26;100047.66;;;9.93;100.00
43364;BME280;40636;52.424;-1.948;2023-07-20T03:54:53;100043.84;;;9.94;100.00
43364;BME280;40636;52.424;-1.948;2023-07-20T03:57:20;100047.56;;;9.88;100.00
43364;BME280;40636;52.424;-1.948;2023-07-20T03:59:48;100043.63;;;9.84;100.00
43364;BME280;40636;52.424;-1.948;2023-07-20T04:02:15;100039.34;;;9.88;100.00
43364;BME280;40636;52.424;-1.948;2023-07-20T04:04:42;100047.00;;;9.86;100.00
43364;BME280;40636;52.424;-1.948;2023-07-20T04:07:08;100049.13;;;9.84;100.00
43364;BME280;40636;52.424;-1.948;2023-07-20T04:09:35;100045.91;;;9.87;100.00
43364;BME280;40636;52.424;-1.948;2023-07-20T04:12:02;100036.03;;;9.86;100.00
43364;BME280;40636;52.424;-1.948;2023-07-20T04:14:29;100048.44;;;9.77;100.00
43364;BME280;40636;52.424;-1.948;2023-07-20T04:16:55;100054.75;;;9.77;100.00
43364;BME280;40636;52.424;-1.948;2023-07-20T04:19:22;100059.72;;;9.80;100.00
43364;BME280;40636;52.424;-1.948;2023-07-20T04:21:49;100046.38;;;9.84;100.00
43364;BME280;40636;52.424;-1.948;2023-07-20T04:24:16;100047.47;;;9.83;100.00
43364;BME280;40636;52.424;-1.948;2023-07-20T04:26:42;100048.03;;;9.85;100.00
43364;BME280;40636;52.424;-1.948;2023-07-20T04:29:09;100050.56;;;9.86;100.00
43364;BME280;40636;52.424;-1.948;2023-07-20T04:31:36;100046.47;;;9.89;100.00
43364;BME280;40636;52.424;-1.948;2023-07-20T04:34:03;100045.00;;;9.98;100.00
43364;BME280;40636;52.424;-1.948;2023-07-20T04:36:29;100038.47;;;9.99;100.00
43364;BME280;40636;52.424;-1.948;2023-07-20T04:38:56;100048.47;;;10.05;100.00
43364;BME280;40636;52.424;-1.948;2023-07-20T04:41:23;100039.25;;;10.11;100.00
43364;BME280;40636;52.424;-1.948;2023-07-20T04:43:51;100040.41;;;10.15;100.00
43364;BME280;40636;52.424;-1.948;2023-07-20T04:46:18;100046.38;;;10.24;100.00
43364;BME280;40636;52.424;-1.948;2023-07-20T04:48:45;100034.41;;;10.30;100.00
43364;BME280;40636;52.424;-1.948;2023-07-20T04:51:12;100030.34;;;10.33;100.00
43364;BME280;40636;52.424;-1.948;2023-07-20T04:53:39;100039.75;;;10.37;100.00
43364;BME280;40636;52.424;-1.948;2023-07-20T04:56:05;100039.34;;;10.45;100.00
43364;BME280;40636;52.424;-1.948;2023-07-20T04:58:32;100042.84;;;10.57;100.00
43364;BME280;40636;52.424;-1.948;2023-07-20T05:00:59;100037.44;;;10.62;100.00
43364;BME280;40636;52.424;-1.948;2023-07-20T05:03:25;100033.44;;;10.70;100.00
43364;BME280;40636;52.424;-1.948;2023-07-20T05:05:53;100034.34;;;10.76;100.00
43364;BME280;40636;52.424;-1.948;2023-07-20T05:08:20;100043.34;;;10.88;100.00
43364;BME280;40636;52.424;-1.948;2023-07-20T05:10:48;100035.53;;;10.97;100.00
43364;BME280;40636;52.424;-1.948;2023-07-20T05:13:16;100043.09;;;11.06;100.00
43364;BME280;40636;52.424;-1.948;2023-07-20T05:15:43;100047.34;;;11.14;100.00
43364;BME280;40636;52.424;-1.948;2023-07-20T05:18:10;100043.63;;;11.25;100.00
43364;BME280;40636;52.424;-1.948;2023-07-20T05:20:36;100045.69;;;11.35;100.00
43364;BME280;40636;52.424;-1.948;2023-07-20T05:23:03;100044.69;;;11.41;100.00
43364;BME280;40636;52.424;-1.948;2023-07-20T05:25:30;100044.25;;;11.49;100.00
43364;BME280;40636;52.424;-1.948;2023-07-20T05:27:57;100046.53;;;11.57;100.00
43364;BME280;40636;52.424;-1.948;2023-07-20T05:30:25;100046.13;;;11.65;100.00
43364;BME280;40636;52.424;-1.948;2023-07-20T05:32:52;100047.31;;;11.75;100.00
43364;BME280;40636;52.424;-1.948;2023-07-20T05:35:21;100040.78;;;11.81;100.00
43364;BME280;40636;52.424;-1.948;2023-07-20T05:37:49;100042.06;;;11.90;100.00
43364;BME280;40636;52.424;-1.948;2023-07-20T05:40:15;100046.03;;;11.99;100.00
43364;BME280;40636;52.424;-1.948;2023-07-20T05:42:46;100043.38;;;12.09;100.00
43364;BME280;40636;52.424;-1.948;2023-07-20T05:45:14;100049.50;;;12.16;100.00
43364;BME280;40636;52.424;-1.948;2023-07-20T05:47:41;100038.28;;;12.23;100.00
43364;BME280;40636;52.424;-1.948;2023-07-20T05:50:09;100040.81;;;12.30;100.00
43364;BME280;40636;52.424;-1.948;2023-07-20T05:52:36;100041.47;;;12.37;100.00
43364;BME280;40636;52.424;-1.948;2023-07-20T05:55:05;100034.66;;;12.44;100.00
43364;BME280;40636;52.424;-1.948;2023-07-20T05:57:33;100046.91;;;12.59;100.00
43364;BME280;40636;52.424;-1.948;2023-07-20T06:00:00;100038.69;;;12.64;100.00
43364;BME280;40636;52.424;-1.948;2023-07-20T06:02:26;100044.28;;;12.74;100.00
43364;BME280;40636;52.424;-1.948;2023-07-20T06:04:53;100041.59;;;12.84;100.00
43364;BME280;40636;52.424;-1.948;2023-07-20T06:07:21;100033.44;;;12.94;100.00
43364;BME280;40636;52.424;-1.948;2023-07-20T06:09:47;100042.56;;;13.00;100.00
43364;BME280;40636;52.424;-1.948;2023-07-20T06:12:14;100038.47;;;13.08;100.00
43364;BME280;40636;52.424;-1.948;2023-07-20T06:14:41;100038.25;;;13.14;100.00
43364;BME280;40636;52.424;-1.948;2023-07-20T06:17:07;100032.75;;;13.19;100.00
43364;BME280;40636;52.424;-1.948;2023-07-20T06:19:35;100035.09;;;13.33;100.00
43364;BME280;40636;52.424;-1.948;2023-07-20T06:22:02;100041.72;;;13.37;100.00
43364;BME280;40636;52.424;-1.948;2023-07-20T06:24:29;100036.25;;;13.47;100.00
43364;BME280;40636;52.424;-1.948;2023-07-20T06:26:55;100028.59;;;13.54;100.00
43364;BME280;40636;52.424;-1.948;2023-07-20T06:29:22;100038.53;;;13.60;100.00
43364;BME280;40636;52.424;-1.948;2023-07-20T06:31:49;100032.53;;;13.68;100.00
43364;BME280;40636;52.424;-1.948;2023-07-20T06:34:15;100038.56;;;13.70;100.00
43364;BME280;40636;52.424;-1.948;2023-07-20T06:36:43;100041.34;;;13.70;100.00
43364;BME280;40636;52.424;-1.948;2023-07-20T06:39:10;100046.03;;;13.75;100.00
43364;BME280;40636;52.424;-1.948;2023-07-20T06:41:40;100036.41;;;13.78;100.00
43364;BME280;40636;52.424;-1.948;2023-07-20T06:44:08;100043.06;;;13.82;100.00
43364;BME280;40636;52.424;-1.948;2023-07-20T06:46:35;100041.41;;;13.86;100.00
43364;BME280;40636;52.424;-1.948;2023-07-20T06:49:02;100037.84;;;13.85;100.00
43364;BME280;40636;52.424;-1.948;2023-07-20T06:51:31;100037.56;;;13.92;100.00
43364;BME280;40636;52.424;-1.948;2023-07-20T06:53:58;100036.47;;;13.98;100.00
43364;BME280;40636;52.424;-1.948;2023-07-20T06:56:25;100036.47;;;13.98;100.00
43364;BME280;40636;52.424;-1.948;2023-07-20T06:58:53;100029.31;;;14.07;100.00
43364;BME280;40636;52.424;-1.948;2023-07-20T07:01:20;100028.00;;;14.20;100.00
43364;BME280;40636;52.424;-1.948;2023-07-20T07:03:48;100029.63;;;14.21;100.00
43364;BME280;40636;52.424;-1.948;2023-07-20T07:06:20;100035.75;;;14.33;100.00
43364;BME280;40636;52.424;-1.948;2023-07-20T07:08:50;100030.22;;;14.38;100.00
43364;BME280;40636;52.424;-1.948;2023-07-20T07:11:17;100033.28;;;14.47;100.00
43364;BME280;40636;52.424;-1.948;2023-07-20T07:13:43;100031.66;;;14.56;100.00
43364;BME280;40636;52.424;-1.948;2023-07-20T07:16:13;100032.22;;;14.63;100.00
43364;BME280;40636;52.424;-1.948;2023-07-20T07:18:46;100025.88;;;14.68;100.00
43364;BME280;40636;52.424;-1.948;2023-07-20T07:21:13;100028.91;;;14.61;100.00
43364;BME280;40636;52.424;-1.948;2023-07-20T07:23:40;100032.50;;;14.77;100.00
43364;BME280;40636;52.424;-1.948;2023-07-20T07:26:06;100023.69;;;14.85;100.00
43364;BME280;40636;52.424;-1.948;2023-07-20T07:28:33;100022.25;;;14.98;100.00
43364;BME280;40636;52.424;-1.948;2023-07-20T07:31:00;100021.72;;;15.01;100.00
43364;BME280;40636;52.424;-1.948;2023-07-20T07:33:27;100017.28;;;15.05;100.00
43364;BME280;40636;52.424;-1.948;2023-07-20T07:35:54;100015.63;;;15.09;100.00
43364;BME280;40636;52.424;-1.948;2023-07-20T07:38:20;100016.72;;;15.13;100.00
43364;BME280;40636;52.424;-1.948;2023-07-20T07:41:07;100012.00;;;15.19;100.00
43364;BME280;40636;52.424;-1.948;2023-07-20T07:43:34;100012.84;;;15.19;100.00
43364;BME280;40636;52.424;-1.948;2023-07-20T07:46:01;100016.97;;;15.32;100.00
43364;BME280;40636;52.424;-1.948;2023-07-20T07:48:28;100015.03;;;15.33;100.00
43364;BME280;40636;52.424;-1.948;2023-07-20T07:50:55;100024.38;;;15.47;100.00
43364;BME280;40636;52.424;-1.948;2023-07-20T07:53:22;100014.97;;;15.58;100.00
43364;BME280;40636;52.424;-1.948;2023-07-20T07:55:48;100019.38;;;15.59;100.00
43364;BME280;40636;52.424;-1.948;2023-07-20T07:58:15;100019.06;;;15.71;100.00
43364;BME280;40636;52.424;-1.948;2023-07-20T08:00:44;100021.56;;;15.72;100.00
43364;BME280;40636;52.424;-1.948;2023-07-20T08:03:11;100008.25;;;15.80;100.00
43364;BME280;40636;52.424;-1.948;2023-07-20T08:05:38;100020.94;;;15.91;100.00
43364;BME280;40636;52.424;-1.948;2023-07-20T08:08:04;100010.38;;;15.98;100.00
43364;BME280;40636;52.424;-1.948;2023-07-20T08:10:31;100015.38;;;15.96;100.00
43364;BME280;40636;52.424;-1.948;2023-07-20T08:12:58;100016.94;;;16.12;100.00
43364;BME280;40636;52.424;-1.948;2023-07-20T08:15:25;100019.19;;;16.05;100.00
43364;BME280;40636;52.424;-1.948;2023-07-20T08:17:52;100020.53;;;16.08;100.00
43364;BME280;40636;52.424;-1.948;2023-07-20T08:20:19;100022.94;;;16.24;100.00
43364;BME280;40636;52.424;-1.948;2023-07-20T08:22:45;100021.78;;;16.36;100.00
43364;BME280;40636;52.424;-1.948;2023-07-20T08:25:14;100023.47;;;16.32;100.00
43364;BME280;40636;52.424;-1.948;2023-07-20T08:27:41;100015.56;;;16.54;100.00
43364;BME280;40636;52.424;-1.948;2023-07-20T08:30:08;100017.28;;;16.45;100.00
43364;BME280;40636;52.424;-1.948;2023-07-20T08:32:35;100017.72;;;16.62;100.00
43364;BME280;40636;52.424;-1.948;2023-07-20T08:35:02;100019.06;;;16.65;100.00
43364;BME280;40636;52.424;-1.948;2023-07-20T08:37:29;100019.63;;;16.67;100.00
43364;BME280;40636;52.424;-1.948;2023-07-20T08:39:55;100011.31;;;16.67;100.00
43364;BME280;40636;52.424;-1.948;2023-07-20T08:42:22;100020.19;;;16.64;100.00
43364;BME280;40636;52.424;-1.948;2023-07-20T08:44:49;100005.56;;;16.58;100.00
43364;BME280;40636;52.424;-1.948;2023-07-20T08:47:20;100016.00;;;16.71;100.00
43364;BME280;40636;52.424;-1.948;2023-07-20T08:49:50;100013.41;;;16.85;100.00
43364;BME280;40636;52.424;-1.948;2023-07-20T08:52:17;100017.38;;;17.03;100.00
43364;BME280;40636;52.424;-1.948;2023-07-20T08:54:45;100011.19;;;17.11;100.00
43364;BME280;40636;52.424;-1.948;2023-07-20T08:57:24;100008.00;;;17.28;100.00
43364;BME280;40636;52.424;-1.948;2023-07-20T09:00:12;100010.63;;;17.14;100.00
43364;BME280;40636;52.424;-1.948;2023-07-20T09:02:54;100016.13;;;17.19;100.00
43364;BME280;40636;52.424;-1.948;2023-07-20T09:05:32;100018.84;;;17.24;100.00
43364;BME280;40636;52.424;-1.948;2023-07-20T09:08:07;100015.25;;;17.24;100.00
43364;BME280;40636;52.424;-1.948;2023-07-20T09:10:34;100025.56;;;17.18;100.00
43364;BME280;40636;52.424;-1.948;2023-07-20T09:13:00;100015.53;;;17.22;100.00
43364;BME280;40636;52.424;-1.948;2023-07-20T09:15:29;100018.25;;;17.28;100.00
43364;BME280;40636;52.424;-1.948;2023-07-20T09:18:01;100015.56;;;17.46;100.00
43364;BME280;40636;52.424;-1.948;2023-07-20T09:20:31;100014.84;;;17.60;100.00
43364;BME280;40636;52.424;-1.948;2023-07-20T09:22:58;100020.16;;;17.56;100.00
43364;BME280;40636;52.424;-1.948;2023-07-20T09:25:26;100018.38;;;17.65;100.00
43364;BME280;40636;52.424;-1.948;2023-07-20T09:27:56;100016.22;;;17.62;100.00
43364;BME280;40636;52.424;-1.948;2023-07-20T09:30:25;100013.78;;;17.32;100.00
43364;BME280;40636;52.424;-1.948;2023-07-20T09:32:55;100002.31;;;17.38;100.00
43364;BME280;40636;52.424;-1.948;2023-07-20T09:35:22;100009.00;;;17.61;100.00
43364;BME280;40636;52.424;-1.948;2023-07-20T09:37:58;100002.28;;;17.67;100.00
43364;BME280;40636;52.424;-1.948;2023-07-20T09:40:29;100011.91;;;17.75;100.00
43364;BME280;40636;52.424;-1.948;2023-07-20T09:42:58;100004.00;;;17.87;100.00
43364;BME280;40636;52.424;-1.948;2023-07-20T09:45:34;100003.81;;;17.79;100.00
43364;BME280;40636;52.424;-1.948;2023-07-20T09:48:08;99993.25;;;17.81;100.00
43364;BME280;40636;52.424;-1.948;2023-07-20T09:50:53;100000.72;;;18.04;100.00
43364;BME280;40636;52.424;-1.948;2023-07-20T09:53:49;100000.47;;;18.00;100.00
43364;BME280;40636;52.424;-1.948;2023-07-20T09:56:16;99993.50;;;18.22;100.00
43364;BME280;40636;52.424;-1.948;2023-07-20T09:58:48;99986.59;;;18.38;100.00
43364;BME280;40636;52.424;-1.948;2023-07-20T10:01:18;99992.31;;;18.28;100.00
43364;BME280;40636;52.424;-1.948;2023-07-20T10:03:53;99992.91;;;18.25;100.00
43364;BME280;40636;52.424;-1.948;2023-07-20T10:06:23;99976.31;;;18.20;100.00
43364;BME280;40636;52.424;-1.948;2023-07-20T10:08:53;99983.47;;;18.26;100.00
43364;BME280;40636;52.424;-1.948;2023-07-20T10:11:22;99986.66;;;17.95;100.00
43364;BME280;40636;52.424;-1.948;2023-07-20T10:13:51;99990.94;;;17.88;100.00
43364;BME280;40636;52.424;-1.948;2023-07-20T10:16:27;99972.78;;;18.14;100.00
43364;BME280;40636;52.424;-1.948;2023-07-20T10:19:03;99992.38;;;18.23;100.00
43364;BME280;40636;52.424;-1.948;2023-07-20T10:21:47;99984.72;;;18.34;100.00
43364;BME280;40636;52.424;-1.948;2023-07-20T10:24:21;99977.41;;;18.57;100.00
43364;BME280;40636;52.424;-1.948;2023-07-20T10:26:49;99971.50;;;18.44;100.00
43364;BME280;40636;52.424;-1.948;2023-07-20T10:29:17;99979.88;;;18.77;100.00
43364;BME280;40636;52.424;-1.948;2023-07-20T10:31:44;99975.91;;;18.97;100.00
43364;BME280;40636;52.424;-1.948;2023-07-20T10:34:11;99976.69;;;18.84;100.00
43364;BME280;40636;52.424;-1.948;2023-07-20T10:36:46;99980.31;;;18.65;100.00
43364;BME280;40636;52.424;-1.948;2023-07-20T10:39:22;99978.97;;;18.82;100.00
43364;BME280;40636;52.424;-1.948;2023-07-20T10:42:08;99970.94;;;18.94;100.00
43364;BME280;40636;52.424;-1.948;2023-07-20T10:44:39;99969.69;;;18.72;100.00
43364;BME280;40636;52.424;-1.948;2023-07-20T10:47:11;99971.25;;;18.92;100.00
43364;BME280;40636;52.424;-1.948;2023-07-20T10:49:58;99966.13;;;18.99;100.00
43364;BME280;40636;52.424;-1.948;2023-07-20T10:52:36;99962.72;;;19.02;100.00
43364;BME280;40636;52.424;-1.948;2023-07-20T10:55:10;99969.75;;;19.00;100.00
43364;BME280;40636;52.424;-1.948;2023-07-20T10:57:37;99963.47;;;18.75;100.00
43364;BME280;40636;52.424;-1.948;2023-07-20T11:00:13;99961.34;;;18.72;100.00
43364;BME280;40636;52.424;-1.948;2023-07-20T11:02:42;99966.91;;;18.72;100.00
43364;BME280;40636;52.424;-1.948;2023-07-20T11:05:36;99963.75;;;18.41;100.00
43364;BME280;40636;52.424;-1.948;2023-07-20T11:08:05;99962.31;;;18.44;100.00
43364;BME280;40636;52.424;-1.948;2023-07-20T11:10:32;99959.47;;;18.49;100.00
43364;BME280;40636;52.424;-1.948;2023-07-20T11:13:18;99954.41;;;18.70;100.00
43364;BME280;40636;52.424;-1.948;2023-07-20T11:15:46;99954.53;;;18.79;100.00
43364;BME280;40636;52.424;-1.948;2023-07-20T11:18:14;99956.72;;;18.82;100.00
43364;BME280;40636;52.424;-1.948;2023-07-20T11:20:41;99943.97;;;18.81;100.00
43364;BME280;40636;52.424;-1.948;2023-07-20T11:23:08;99945.38;;;18.78;100.00
43364;BME280;40636;52.424;-1.948;2023-07-20T11:25:39;99936.78;;;19.07;100.00
43364;BME280;40636;52.424;-1.948;2023-07-20T11:28:07;99939.06;;;19.33;100.00
43364;BME280;40636;52.424;-1.948;2023-07-20T11:30:37;99938.47;;;19.36;100.00
43364;BME280;40636;52.424;-1.948;2023-07-20T11:33:06;99936.78;;;19.21;100.00
43364;BME280;40636;52.424;-1.948;2023-07-20T11:35:36;99942.16;;;19.17;100.00
43364;BME280;40636;52.424;-1.948;2023-07-20T11:38:08;99935.94;;;18.93;100.00
43364;BME280;40636;52.424;-1.948;2023-07-20T11:40:35;99938.09;;;18.82;100.00
43364;BME280;40636;52.424;-1.948;2023-07-20T11:43:02;99938.91;;;18.83;100.00
43364;BME280;40636;52.424;-1.948;2023-07-20T11:45:31;99941.41;;;18.65;100.00
43364;BME280;40636;52.424;-1.948;2023-07-20T11:47:59;99942.31;;;18.61;100.00
43364;BME280;40636;52.424;-1.948;2023-07-20T11:50:27;99936.97;;;18.64;100.00
43364;BME280;40636;52.424;-1.948;2023-07-20T11:52:53;99947.44;;;18.72;100.00
43364;BME280;40636;52.424;-1.948;2023-07-20T11:55:20;99937.41;;;19.04;100.00
43364;BME280;40636;52.424;-1.948;2023-07-20T11:58:06;99933.38;;;19.24;100.00
43364;BME280;40636;52.424;-1.948;2023-07-20T12:00:35;99931.44;;;19.38;100.00
43364;BME280;40636;52.424;-1.948;2023-07-20T12:03:05;99927.94;;;19.33;100.00
43364;BME280;40636;52.424;-1.948;2023-07-20T12:05:34;99926.19;;;19.37;100.00
43364;BME280;40636;52.424;-1.948;2023-07-20T12:08:21;99923.50;;;19.59;100.00
43364;BME280;40636;52.424;-1.948;2023-07-20T12:10:48;99917.09;;;19.72;100.00
43364;BME280;40636;52.424;-1.948;2023-07-20T12:13:15;99925.66;;;19.48;100.00
43364;BME280;40636;52.424;-1.948;2023-07-20T12:15:43;99922.38;;;19.33;100.00
43364;BME280;40636;52.424;-1.948;2023-07-20T12:18:10;99916.78;;;19.74;100.00
43364;BME280;40636;52.424;-1.948;2023-07-20T12:20:37;99920.94;;;19.35;100.00
43364;BME280;40636;52.424;-1.948;2023-07-20T12:23:09;99902.97;;;19.69;100.00
43364;BME280;40636;52.424;-1.948;2023-07-20T12:25:40;99911.13;;;19.65;100.00
43364;BME280;40636;52.424;-1.948;2023-07-20T12:28:12;99911.53;;;19.72;100.00
43364;BME280;40636;52.424;-1.948;2023-07-20T12:30:41;99912.22;;;19.92;100.00
43364;BME280;40636;52.424;-1.948;2023-07-20T12:33:08;99918.09;;;19.90;100.00
43364;BME280;40636;52.424;-1.948;2023-07-20T12:35:35;99923.06;;;19.80;100.00
43364;BME280;40636;52.424;-1.948;2023-07-20T12:38:04;99912.88;;;19.61;100.00
43364;BME280;40636;52.424;-1.948;2023-07-20T12:40:31;99912.03;;;19.47;100.00
43364;BME280;40636;52.424;-1.948;2023-07-20T12:42:58;99921.31;;;19.56;100.00
43364;BME280;40636;52.424;-1.948;2023-07-20T12:45:25;99913.31;;;19.41;100.00
43364;BME280;40636;52.424;-1.948;2023-07-20T12:47:51;99910.09;;;19.47;100.00
43364;BME280;40636;52.424;-1.948;2023-07-20T12:50:18;99907.41;;;19.42;100.00
43364;BME280;40636;52.424;-1.948;2023-07-20T12:52:45;99914.44;;;19.26;100.00
43364;BME280;40636;52.424;-1.948;2023-07-20T12:55:12;99910.81;;;19.12;100.00